Slupsk, Poland

6:54 AM CEST on August 27, 2016 (GMT +0200)
IPOMORSK9 | | Change Station

Elev 23 ft 54.59 °N, 16.86 °E | Updated 47 seconds ago

Clear
Clear
67.1 °F
Feels Like 67.1 °F
N
1.6
Wind Variable Wind from North
Gusts 2.2 mph

Today
High -- | Low -- °F
--% Chance of Precip.
Yesterday
High -- | Low -- °F
Precip. -- in
Pressure 30.09 in
Visibility -9999.0 miles
Clouds
Dew Point 67 °F
Humidity 99%
Rainfall 0.00 in
Snow Depth Not available.
5:50 AM 7:54 PM
Waning Crescent, 28% visible
METAR EPGD 270430Z 26004KT CAVOK 17/13 Q1019
Pressure 30.09 in
Visibility -9999.0 miles
Clouds
Dew Point 67 °F
Humidity 99%
Rainfall 0.00 in
Snow Depth Not available.
5:50 AM 7:54 PM
Waning Crescent, 28% visible
METAR EPGD 270430Z 26004KT CAVOK 17/13 Q1019

10-Day Weather Forecast

×

Almanac

Astronomy

Aug. 27, 2016 Rise Set
Actual Time
Civil Twilight
Nautical Twilight
Astronomical Twilight
Moon
Length of Visible Light
Length of Day
Tomorrow will be .
, % of the Moon is Illuminated

Today's Extremes

Country Highs Country Lows

Community

WunderPhotos

Upload Photos

1,935,299 photos uploaded!

WunderBlog® & News

Nearby

Air Quality

  Air Quality AQ Index Pollutant
Not available.

Snow Depth

Station Depth Elevation

Earthquake Activity

City Distance Mag. Time & Date
Minimum magnitude displayed is 2.5.

Coastal Water Temperatures

Place Temperature

Stations

Nearby Weather Stations

Station Location Temp. Windchill Dew Point Humidity Wind Precip. Elev Updated Type